الصفحة الرئيسية
METAR-TAF:

METAR-TAF

مطار :

مطار غران كناريا

كناريا الكبرى, إسبانيا

دائرة عرض: 27-56N, خط طول: 015-23W, ارتفاع: 23 متر

مراقبة الطقس الحالي

تاريخ ووقت الإصدار 30 دقيقة قبل الساعة 22:00UTC
ريح 17 عقدة من الشمال
درجة الحرارة 17°درجة مئوية
الرطوبة 63%
ضغط 1014 hPa
الرؤية 10 كم أو أكثر
غيوم قليلة على ارتفاع 3500 قدم

METAR: GCLP 232200Z 35017KT 9999 FEW035 17/10 Q1014 NOSIG

زمن: 22:30 (22:30 UTC)

توقعات

تاريخ ووقت الإصدار 2ساعات و 30 دقيقة قبل الساعة 20:00UTC
التوقعات صالحة من23 الساعة 21 UTC إلى 24 الساعة 21 UTC
ريح 16 عقدة من الشمال/الشمال الغربي
الرؤية 10 كم أو أكثر
غيوم قليلة على ارتفاع 3500 قدم
أصبح
من 24 الساعة 10 UTC إلى 24 الساعة 12 UTC
ريح 12 عقدة من الشمال الشرقي
أصبح
من 24 الساعة 18 UTC إلى 24 الساعة 20 UTC
ريح 7 عقدة من الشمال الغربي

TAF: GCLP 232000Z 2321/2421 34016KT 9999 FEW035 TX22/2414Z TN16/2406Z BECMG 2410/2412 04012KT BECMG 2418/2420 32007KT

أرصاد الطقس والتوقعات من أكثر من 4000 مطار (تقارير الطقس للمطار METAR والتنبؤ بالطقس بالمطارTAF).

المحطات المتاحة هي النقط الصفراء والحمراء على الخريطة.

حرك المؤشر فوق النقطة لمعرفة اسم المحطة.

ثم انقر لمعرفة أرصاد وتوقعات الطقس.

لتغيير الخارطة: اضغط على الأزرار الخضراء مع رمز الصليب الأسود للتكبير. على الزر الأخضر مع شرطة للتصغير، أو على الأسهم الخضراء للخرائط المجاورة.


METAR-TAF: